createdAt,value
2019-03-20T00:00:18.760Z,150384.44
2019-03-20T00:02:47.206Z,150402.70
2019-03-20T00:05:15.684Z,150375.36
2019-03-20T00:07:44.143Z,150376.66
2019-03-20T00:10:12.989Z,150400.11
2019-03-20T00:12:41.444Z,150366.22
2019-03-20T00:15:17.806Z,150347.95
2019-03-20T00:17:46.260Z,150342.72
2019-03-20T00:20:15.372Z,150345.36
2019-03-20T00:22:44.118Z,150341.42
2019-03-20T00:25:13.155Z,150328.39
2019-03-20T00:27:41.880Z,150327.09
2019-03-20T00:30:17.321Z,150337.53
2019-03-20T00:32:46.521Z,150350.55
2019-03-20T00:35:15.249Z,150346.66
2019-03-20T00:37:43.723Z,150329.69
2019-03-20T00:40:16.322Z,150324.50
2019-03-20T00:42:44.812Z,150306.23
2019-03-20T00:45:21.739Z,150314.06
2019-03-20T00:47:50.348Z,150303.64
2019-03-20T00:50:19.778Z,150308.83
2019-03-20T00:52:48.297Z,150274.94
2019-03-20T00:55:17.911Z,150265.81
2019-03-20T00:57:46.531Z,150250.16
2019-03-20T01:00:25.453Z,150225.41
2019-03-20T01:02:54.201Z,150201.95
2019-03-20T01:05:22.827Z,150229.30
2019-03-20T01:07:51.443Z,150220.16
2019-03-20T01:10:21.169Z,150220.16
2019-03-20T01:12:49.713Z,150205.84
2019-03-20T01:15:18.181Z,150194.13
2019-03-20T01:17:46.802Z,150211.08
2019-03-20T01:20:17.327Z,150222.81
2019-03-20T01:22:46.160Z,150234.53
2019-03-20T01:25:15.774Z,150208.44
2019-03-20T01:27:44.250Z,150165.44
2019-03-20T01:30:35.437Z,150157.61
2019-03-20T01:33:09.037Z,150170.69
2019-03-20T01:35:37.811Z,150188.89
2019-03-20T01:38:07.016Z,150162.84
2019-03-20T01:40:35.567Z,150140.70
2019-03-20T01:43:04.188Z,150139.41
2019-03-20T01:45:32.660Z,150168.03
2019-03-20T01:48:01.181Z,150186.28
2019-03-20T01:50:29.730Z,150118.56
2019-03-20T01:52:58.197Z,150139.41
2019-03-20T01:55:26.678Z,150139.41
2019-03-20T01:57:55.140Z,150119.86
2019-03-20T02:00:23.692Z,150117.22
2019-03-20T02:02:52.149Z,150128.98
2019-03-20T02:05:20.624Z,150113.33
2019-03-20T02:07:49.165Z,150104.20
2019-03-20T02:10:18.111Z,150080.77
2019-03-20T02:12:48.251Z,150071.64
2019-03-20T02:15:17.863Z,150067.75
2019-03-20T02:17:46.498Z,150071.64
2019-03-20T02:20:19.309Z,150092.48
2019-03-20T02:22:47.840Z,150071.64
2019-03-20T02:25:16.753Z,150078.17
2019-03-20T02:27:45.285Z,150088.59
2019-03-20T02:30:18.997Z,150082.06
2019-03-20T02:32:47.551Z,150101.61
2019-03-20T02:35:16.027Z,150076.88
2019-03-20T02:37:44.473Z,150042.97
2019-03-20T02:40:14.238Z,150044.27
2019-03-20T02:42:42.748Z,150048.20
2019-03-20T02:45:14.266Z,150058.63
2019-03-20T02:47:42.847Z,150027.37
2019-03-20T02:50:12.644Z,150033.84
2019-03-20T02:52:41.163Z,150062.52
2019-03-20T02:55:11.040Z,150050.80
2019-03-20T02:57:39.586Z,150053.39
2019-03-20T03:00:11.112Z,150046.91
2019-03-20T03:02:39.599Z,150026.06
2019-03-20T03:05:09.206Z,150048.20
2019-03-20T03:07:37.678Z,150049.50
2019-03-20T03:10:09.210Z,150049.50
2019-03-20T03:12:37.700Z,150045.56
2019-03-20T03:15:08.382Z,150045.56
2019-03-20T03:17:36.872Z,150041.67
2019-03-20T03:20:10.807Z,150036.50
2019-03-20T03:22:39.290Z,150023.44
2019-03-20T03:25:09.286Z,150027.37
2019-03-20T03:27:37.765Z,150019.55
2019-03-20T03:30:13.670Z,150009.13
2019-03-20T03:32:42.302Z,150006.53
2019-03-20T03:35:16.838Z,150009.13
2019-03-20T03:37:41.403Z,150010.42
2019-03-20T03:40:15.308Z,149954.44
2019-03-20T03:42:44.060Z,149938.80
2019-03-20T03:45:14.159Z,149923.19
2019-03-20T03:47:42.628Z,149941.38
2019-03-20T03:50:11.453Z,149954.44
2019-03-20T03:52:40.089Z,149959.63
2019-03-20T03:55:15.764Z,149954.44
2019-03-20T03:57:44.701Z,149923.19
2019-03-20T04:00:20.668Z,149920.56
2019-03-20T04:02:49.136Z,149927.08
2019-03-20T04:05:19.155Z,149934.91
2019-03-20T04:07:47.906Z,149917.97
2019-03-20T04:10:18.394Z,149910.14
2019-03-20T04:12:47.015Z,149924.50
2019-03-20T04:15:16.235Z,149917.97
2019-03-20T04:17:44.769Z,149941.38
2019-03-20T04:20:14.981Z,149954.44
2019-03-20T04:22:43.494Z,149912.78
2019-03-20T04:25:12.781Z,149924.50
2019-03-20T04:27:41.338Z,149928.37
2019-03-20T04:30:12.571Z,149897.14
2019-03-20T04:32:41.052Z,149912.78
2019-03-20T04:35:10.050Z,149897.14
2019-03-20T04:37:38.531Z,149899.72
2019-03-20T04:40:09.705Z,149899.72
2019-03-20T04:42:38.183Z,149906.25
2019-03-20T04:45:12.170Z,149894.55
2019-03-20T04:47:39.976Z,149891.91
2019-03-20T04:50:13.658Z,149904.95
2019-03-20T04:52:42.154Z,149912.78
2019-03-20T04:55:11.039Z,149906.25
2019-03-20T04:57:39.700Z,149897.14
2019-03-20T05:00:13.709Z,149885.42
2019-03-20T05:02:42.192Z,149902.37
2019-03-20T05:05:10.823Z,149911.44
2019-03-20T05:07:39.307Z,149908.84
2019-03-20T05:10:13.078Z,149893.25
2019-03-20T05:12:41.564Z,149912.78
2019-03-20T05:15:11.764Z,149910.14
2019-03-20T05:17:40.246Z,149915.38
2019-03-20T05:20:14.461Z,149914.08
2019-03-20T05:22:42.946Z,149915.38
2019-03-20T05:25:11.396Z,149912.78
2019-03-20T05:27:39.892Z,149912.78
2019-03-20T05:30:11.240Z,149904.95
2019-03-20T05:32:39.794Z,149917.97
2019-03-20T05:35:08.632Z,149912.78
2019-03-20T05:37:37.110Z,149928.37
2019-03-20T05:40:11.556Z,149942.69
2019-03-20T05:42:40.046Z,149946.63
2019-03-20T05:45:11.056Z,149946.63
2019-03-20T05:47:39.542Z,149946.63
2019-03-20T05:50:11.145Z,149951.80
2019-03-20T05:52:39.626Z,149941.38
2019-03-20T05:55:08.828Z,149963.52
2019-03-20T05:57:37.319Z,149972.63
2019-03-20T06:00:08.996Z,150000.00
2019-03-20T06:02:37.473Z,149981.75
2019-03-20T06:05:07.475Z,149998.70
2019-03-20T06:07:35.925Z,150033.84
2019-03-20T06:10:07.395Z,150059.92
2019-03-20T06:12:35.860Z,150082.06
2019-03-20T06:15:05.112Z,150110.73
2019-03-20T06:17:33.572Z,150144.59
2019-03-20T06:20:02.063Z,150175.87
2019-03-20T06:22:30.517Z,150207.14
2019-03-20T06:24:58.998Z,150256.69
2019-03-20T06:27:27.462Z,150314.06
2019-03-20T06:29:55.943Z,150363.58
2019-03-20T06:32:24.431Z,150426.22
2019-03-20T06:34:52.909Z,150491.44
2019-03-20T06:37:31.978Z,150530.58
2019-03-20T06:39:53.392Z,150581.47
2019-03-20T06:42:21.752Z,150644.13
2019-03-20T06:44:50.235Z,150713.28
2019-03-20T06:47:18.698Z,150760.31
2019-03-20T06:49:47.176Z,150802.09
2019-03-20T06:52:15.636Z,150847.84
2019-03-20T06:54:44.112Z,150885.69
2019-03-20T06:57:12.561Z,150945.81
2019-03-20T07:00:05.552Z,150966.72
2019-03-20T07:02:33.861Z,150979.77
2019-03-20T07:05:23.816Z,150998.06
2019-03-20T07:07:52.014Z,151052.95
2019-03-20T07:10:23.537Z,151102.69
2019-03-20T07:12:51.987Z,151105.34
2019-03-20T07:15:20.472Z,151157.64
2019-03-20T07:17:48.932Z,151135.38
2019-03-20T07:20:17.409Z,151199.48
2019-03-20T07:22:45.880Z,151257.00
2019-03-20T07:25:14.361Z,151285.80
2019-03-20T07:27:42.856Z,151332.92
2019-03-20T07:30:12.654Z,151385.27
2019-03-20T07:32:41.106Z,151442.81
2019-03-20T07:35:09.584Z,151503.05
2019-03-20T07:37:38.039Z,151558.02
2019-03-20T07:40:09.154Z,151620.94
2019-03-20T07:42:37.636Z,151662.84
2019-03-20T07:45:09.451Z,151786.05
2019-03-20T07:47:37.931Z,151835.81
2019-03-20T07:50:07.950Z,151924.97
2019-03-20T07:52:36.398Z,151987.91
2019-03-20T07:55:05.722Z,152054.81
2019-03-20T07:57:34.178Z,152109.89
2019-03-20T08:00:02.655Z,152163.67
2019-03-20T08:02:31.123Z,152213.59
2019-03-20T08:04:59.617Z,152259.50
2019-03-20T08:07:28.086Z,152313.36
2019-03-20T08:09:56.580Z,152397.38
2019-03-20T08:12:25.050Z,152431.50
2019-03-20T08:14:53.540Z,152526.06
2019-03-20T08:17:22.018Z,152586.50
2019-03-20T08:19:50.511Z,152628.59
2019-03-20T08:22:18.978Z,152620.70
2019-03-20T08:24:47.466Z,152700.87
2019-03-20T08:27:15.941Z,152804.73
2019-03-20T08:29:44.441Z,152820.53
2019-03-20T08:32:12.903Z,152904.69
2019-03-20T08:34:41.383Z,152898.09
2019-03-20T08:37:09.850Z,152988.92
2019-03-20T08:39:38.330Z,153036.25
2019-03-20T08:42:06.798Z,153067.83
2019-03-20T08:44:35.286Z,153154.72
2019-03-20T08:47:03.760Z,153129.69
2019-03-20T08:49:32.253Z,153117.84
2019-03-20T08:52:00.709Z,153198.16
2019-03-20T08:54:29.205Z,153194.22
2019-03-20T08:56:57.675Z,153241.59
2019-03-20T08:59:26.170Z,153283.77
2019-03-20T09:01:55.002Z,153289.06
2019-03-20T09:04:23.474Z,153332.50
2019-03-20T09:06:51.962Z,153307.52
2019-03-20T09:09:20.437Z,153349.66
2019-03-20T09:11:48.922Z,153503.78
2019-03-20T09:14:17.393Z,153481.34
2019-03-20T09:16:45.880Z,153365.44
2019-03-20T09:19:14.336Z,153452.41
2019-03-20T09:21:42.816Z,153498.50
2019-03-20T09:24:11.276Z,153573.59
2019-03-20T09:26:39.756Z,153551.20
2019-03-20T09:29:18.231Z,153697.56
2019-03-20T09:31:38.450Z,153745.05
2019-03-20T09:34:06.894Z,153632.97
2019-03-20T09:36:43.213Z,153787.23
2019-03-20T09:39:07.622Z,153961.44
2019-03-20T09:41:36.105Z,154027.39
2019-03-20T09:44:04.566Z,154085.44
2019-03-20T09:46:33.042Z,154155.47
2019-03-20T09:49:01.522Z,154107.92
2019-03-20T09:51:29.994Z,154098.67
2019-03-20T09:53:58.450Z,154317.91
2019-03-20T09:56:26.925Z,154175.28
2019-03-20T09:58:55.440Z,154500.27
2019-03-20T10:01:23.921Z,154595.42
2019-03-20T10:03:52.380Z,154725.08
2019-03-20T10:06:20.860Z,154920.92
2019-03-20T10:08:53.997Z,154890.48
2019-03-20T10:11:19.544Z,155169.81
2019-03-20T10:13:48.050Z,155169.81
2019-03-20T10:16:16.516Z,155091.69
2019-03-20T10:18:44.982Z,155148.64
2019-03-20T10:21:13.482Z,155155.22
2019-03-20T10:23:41.929Z,154979.11
2019-03-20T10:26:10.406Z,155116.86
2019-03-20T10:28:38.875Z,155267.84
2019-03-20T10:31:07.339Z,155352.61
2019-03-20T10:33:35.820Z,155299.63
2019-03-20T10:36:04.454Z,155164.50
2019-03-20T10:38:32.944Z,155402.97
2019-03-20T10:41:01.405Z,155630.98
2019-03-20T10:43:29.903Z,155596.48
2019-03-20T10:45:58.367Z,155583.23
2019-03-20T10:48:26.866Z,155792.80
2019-03-20T10:50:55.324Z,155599.17
2019-03-20T10:53:23.839Z,155942.78
2019-03-20T10:55:52.322Z,156035.69
2019-03-20T10:58:20.809Z,155694.67
2019-03-20T11:00:49.271Z,155669.45
2019-03-20T11:03:17.767Z,155699.95
2019-03-20T11:05:46.236Z,155339.38
2019-03-20T11:08:14.726Z,155327.47
2019-03-20T11:10:43.224Z,155290.34
2019-03-20T11:13:11.708Z,154944.72
2019-03-20T11:15:40.193Z,154981.80
2019-03-20T11:18:08.660Z,154660.30
2019-03-20T11:20:37.142Z,154656.30
2019-03-20T11:23:05.798Z,154399.87
2019-03-20T11:25:34.347Z,154317.91
2019-03-20T11:28:02.831Z,154130.41
2019-03-20T11:30:32.433Z,154220.16
2019-03-20T11:33:00.923Z,154088.11
2019-03-20T11:35:29.587Z,154063.00
2019-03-20T11:37:58.088Z,153982.53
2019-03-20T11:40:29.054Z,153925.78
2019-03-20T11:42:57.646Z,153774.06
2019-03-20T11:45:26.197Z,153905.98
2019-03-20T11:47:54.857Z,153857.16
2019-03-20T11:50:25.858Z,153832.06
2019-03-20T11:52:54.353Z,153784.62
2019-03-20T11:55:22.821Z,153663.30
2019-03-20T11:57:51.332Z,153700.19
2019-03-20T12:00:23.843Z,153665.92
2019-03-20T12:02:52.336Z,153541.97
2019-03-20T12:05:20.858Z,153548.58
2019-03-20T12:07:49.354Z,153552.50
2019-03-20T12:10:20.878Z,153466.87
2019-03-20T12:12:49.629Z,153502.42
2019-03-20T12:15:18.340Z,153426.03
2019-03-20T12:17:47.004Z,153377.28
2019-03-20T12:20:17.940Z,153354.89
2019-03-20T12:22:47.374Z,153349.66
2019-03-20T12:25:28.964Z,153357.52
2019-03-20T12:27:57.509Z,153341.73
2019-03-20T12:30:28.147Z,153339.11
2019-03-20T12:32:56.973Z,153316.69
2019-03-20T12:35:27.925Z,153266.64
2019-03-20T12:37:56.472Z,153283.77
2019-03-20T12:40:26.980Z,153199.47
2019-03-20T12:42:55.913Z,153263.97
2019-03-20T12:45:27.096Z,153227.13
2019-03-20T12:47:55.643Z,153240.28
2019-03-20T12:50:24.201Z,153249.50
2019-03-20T12:52:52.677Z,153213.97
2019-03-20T12:55:22.010Z,153215.28
2019-03-20T12:57:50.489Z,153267.94
2019-03-20T13:00:24.202Z,153279.84
2019-03-20T13:02:53.877Z,153248.19
2019-03-20T13:05:22.624Z,153211.31
2019-03-20T13:07:51.382Z,153212.61
2019-03-20T13:10:24.747Z,153213.97
2019-03-20T13:12:53.214Z,153188.94
2019-03-20T13:15:23.724Z,153153.41
2019-03-20T13:17:52.920Z,153115.22
2019-03-20T13:20:21.847Z,153141.58
2019-03-20T13:22:56.373Z,153120.52
2019-03-20T13:25:24.863Z,153138.91
2019-03-20T13:27:53.332Z,153137.59
2019-03-20T13:30:27.366Z,153136.28
2019-03-20T13:32:55.831Z,153087.58
2019-03-20T13:35:24.330Z,153124.45
2019-03-20T13:37:52.825Z,153125.75
2019-03-20T13:40:21.334Z,153123.14
2019-03-20T13:42:49.806Z,153144.19
2019-03-20T13:45:20.692Z,153087.58
2019-03-20T13:47:49.145Z,153094.17
2019-03-20T13:50:17.634Z,153098.11
2019-03-20T13:52:46.104Z,153123.14
2019-03-20T13:55:16.237Z,153088.94
2019-03-20T13:57:44.700Z,153128.37
2019-03-20T14:00:15.645Z,153128.37
2019-03-20T14:02:44.109Z,153100.78
2019-03-20T14:05:13.155Z,153066.53
2019-03-20T14:07:41.608Z,153083.64
2019-03-20T14:10:13.354Z,153081.03
2019-03-20T14:12:41.826Z,153057.31
2019-03-20T14:15:12.163Z,153078.36
2019-03-20T14:17:40.709Z,153086.27
2019-03-20T14:20:12.303Z,153091.56
2019-03-20T14:22:40.778Z,153067.83
2019-03-20T14:25:11.211Z,153067.83
2019-03-20T14:27:39.693Z,153095.48
2019-03-20T14:30:20.458Z,153041.55
2019-03-20T14:32:48.930Z,153027.09
2019-03-20T14:35:17.435Z,153024.42
2019-03-20T14:37:45.994Z,153012.59
2019-03-20T14:40:36.793Z,153088.94
2019-03-20T14:43:05.890Z,153013.91
2019-03-20T14:45:34.498Z,153028.41
2019-03-20T14:48:02.964Z,152994.16
2019-03-20T14:50:32.602Z,152991.53
2019-03-20T14:53:01.138Z,152998.14
2019-03-20T14:55:29.765Z,152996.83
2019-03-20T14:57:58.327Z,152970.50
2019-03-20T15:00:28.704Z,152994.16
2019-03-20T15:02:57.181Z,152981.02
2019-03-20T15:05:25.836Z,152986.31
2019-03-20T15:07:54.327Z,152965.25
2019-03-20T15:10:23.858Z,152973.11
2019-03-20T15:12:53.259Z,152970.50
2019-03-20T15:15:46.280Z,152978.41
2019-03-20T15:18:14.745Z,152996.83
2019-03-20T15:20:43.234Z,152983.63
2019-03-20T15:23:11.712Z,152982.33
2019-03-20T15:25:40.218Z,152991.53
2019-03-20T15:28:08.682Z,152991.53
2019-03-20T15:30:37.236Z,152996.83
2019-03-20T15:33:05.699Z,153000.75
2019-03-20T15:35:34.201Z,153002.06
2019-03-20T15:38:02.724Z,152987.61
2019-03-20T15:40:31.709Z,152986.31
2019-03-20T15:43:00.192Z,152981.02
2019-03-20T15:45:28.682Z,152986.31
2019-03-20T15:47:57.199Z,152992.84
2019-03-20T15:50:27.499Z,152981.02
2019-03-20T15:52:56.554Z,152977.09
2019-03-20T15:55:36.314Z,152969.19
2019-03-20T15:58:05.117Z,152958.66
2019-03-20T16:00:33.682Z,152988.92
2019-03-20T16:03:05.099Z,152954.73
2019-03-20T16:05:33.726Z,152952.02
2019-03-20T16:08:02.253Z,152959.97
2019-03-20T16:10:30.740Z,152946.78
2019-03-20T16:12:59.211Z,152930.97
2019-03-20T16:15:27.896Z,152925.73
2019-03-20T16:17:56.348Z,152944.16
2019-03-20T16:20:24.892Z,152933.64
2019-03-20T16:22:53.372Z,152936.25
2019-03-20T16:25:23.389Z,152937.56
2019-03-20T16:27:51.876Z,152925.73
2019-03-20T16:30:24.691Z,152920.45
2019-03-20T16:32:53.172Z,152928.36
2019-03-20T16:35:21.645Z,152925.73
2019-03-20T16:37:50.207Z,152915.22
2019-03-20T16:40:20.763Z,152911.23
2019-03-20T16:42:49.316Z,152909.92
2019-03-20T16:45:26.540Z,152903.39
2019-03-20T16:47:55.089Z,152894.17
2019-03-20T16:50:23.567Z,152896.78
2019-03-20T16:52:52.053Z,152880.98
2019-03-20T16:55:20.598Z,152878.36
2019-03-20T16:57:49.084Z,152878.36
2019-03-20T17:00:23.042Z,152862.61
2019-03-20T17:02:51.601Z,152859.94
2019-03-20T17:05:20.239Z,152852.09
2019-03-20T17:07:48.723Z,152837.59
2019-03-20T17:10:25.631Z,152841.58
2019-03-20T17:12:54.125Z,152828.38
2019-03-20T17:15:24.637Z,152820.53
2019-03-20T17:17:53.253Z,152817.88
2019-03-20T17:20:21.722Z,152802.12
2019-03-20T17:22:50.287Z,152802.12
2019-03-20T17:25:18.754Z,152795.53
2019-03-20T17:27:47.248Z,152796.84
2019-03-20T17:30:36.140Z,152799.50
2019-03-20T17:33:05.771Z,152785.00
2019-03-20T17:35:34.297Z,152767.95
2019-03-20T17:38:02.845Z,152760.05
2019-03-20T17:40:31.391Z,152767.95
2019-03-20T17:42:59.883Z,152746.92
2019-03-20T17:45:29.807Z,152748.22
2019-03-20T17:47:58.295Z,152741.63
2019-03-20T17:50:31.012Z,152753.45
2019-03-20T17:52:59.889Z,152754.77
2019-03-20T17:55:28.608Z,152737.72
2019-03-20T17:57:57.150Z,152724.53
2019-03-20T18:00:44.044Z,152735.05
2019-03-20T18:03:12.560Z,152725.84
2019-03-20T18:05:41.237Z,152728.50
2019-03-20T18:08:10.188Z,152724.53
2019-03-20T18:10:38.692Z,152716.69
2019-03-20T18:13:07.911Z,152720.61
2019-03-20T18:15:36.710Z,152717.98
2019-03-20T18:18:06.445Z,152714.02
2019-03-20T18:20:34.958Z,152712.70
2019-03-20T18:23:03.450Z,152708.78
2019-03-20T18:25:31.909Z,152699.58
2019-03-20T18:28:00.400Z,152699.58
2019-03-20T18:30:30.803Z,152696.95
2019-03-20T18:32:59.351Z,152689.06
2019-03-20T18:35:27.826Z,152670.66
2019-03-20T18:37:56.306Z,152662.75
2019-03-20T18:40:26.230Z,152674.63
2019-03-20T18:42:54.707Z,152670.66
2019-03-20T18:45:24.415Z,152657.52
2019-03-20T18:47:52.908Z,152657.52
2019-03-20T18:50:22.410Z,152633.87
2019-03-20T18:52:51.534Z,152636.50
2019-03-20T18:55:20.432Z,152641.72
2019-03-20T18:57:49.253Z,152647.02
2019-03-20T19:00:31.878Z,152600.98
2019-03-20T19:03:03.450Z,152620.70
2019-03-20T19:05:37.700Z,152603.66
2019-03-20T19:08:06.754Z,152608.88
2019-03-20T19:10:35.638Z,152594.45
2019-03-20T19:13:04.155Z,152597.06
2019-03-20T19:15:32.612Z,152595.75
2019-03-20T19:18:01.081Z,152595.75
2019-03-20T19:20:29.540Z,152591.78
2019-03-20T19:22:58.033Z,152602.34
2019-03-20T19:25:26.481Z,152604.97
2019-03-20T19:27:54.986Z,152604.97
2019-03-20T19:30:25.177Z,152606.28
2019-03-20T19:32:53.711Z,152604.97
2019-03-20T19:35:22.278Z,152606.28
2019-03-20T19:37:50.804Z,152591.78
2019-03-20T19:40:21.413Z,152602.34
2019-03-20T19:42:49.871Z,152599.69
2019-03-20T19:45:18.899Z,152598.38
2019-03-20T19:47:47.439Z,152599.69
2019-03-20T19:50:18.979Z,152597.06
2019-03-20T19:52:47.449Z,152602.34
2019-03-20T19:55:16.772Z,152600.98
2019-03-20T19:57:45.780Z,152598.38
2019-03-20T20:00:22.277Z,152590.42
2019-03-20T20:02:50.754Z,152591.78
2019-03-20T20:05:19.245Z,152594.45
2019-03-20T20:07:47.813Z,152590.42
2019-03-20T20:10:18.397Z,152582.59
2019-03-20T20:12:47.387Z,152587.81
2019-03-20T20:15:18.923Z,152585.20
2019-03-20T20:17:47.396Z,152587.81
2019-03-20T20:20:18.210Z,152582.59
2019-03-20T20:22:46.673Z,152581.28
2019-03-20T20:25:17.948Z,152565.48
2019-03-20T20:27:46.479Z,152576.00
2019-03-20T20:30:19.155Z,152573.38
2019-03-20T20:32:47.890Z,152574.69
2019-03-20T20:35:17.423Z,152576.00
2019-03-20T20:37:46.621Z,152576.00
2019-03-20T20:40:27.069Z,152572.08
2019-03-20T20:42:55.536Z,152573.38
2019-03-20T20:45:24.031Z,152554.97
2019-03-20T20:47:52.503Z,152554.97
2019-03-20T20:50:20.994Z,152562.87
2019-03-20T20:52:49.469Z,152572.08
2019-03-20T20:55:20.027Z,152566.80
2019-03-20T20:57:48.561Z,152551.06
2019-03-20T21:00:24.041Z,152554.97
2019-03-20T21:02:52.632Z,152549.69
2019-03-20T21:05:21.194Z,152557.59
2019-03-20T21:07:49.655Z,152544.47
2019-03-20T21:10:27.404Z,152539.19
2019-03-20T21:12:57.309Z,152549.69
2019-03-20T21:15:41.394Z,152547.08
2019-03-20T21:18:15.618Z,152535.27
2019-03-20T21:20:50.055Z,152547.08
2019-03-20T21:23:38.144Z,152547.08
2019-03-20T21:26:12.258Z,152539.19
2019-03-20T21:29:17.174Z,152527.38
2019-03-20T21:31:51.698Z,152523.45
2019-03-20T21:34:28.897Z,152524.75
2019-03-20T21:37:33.933Z,152530.03
2019-03-20T21:40:02.420Z,152512.94
2019-03-20T21:42:33.931Z,152526.06
2019-03-20T21:45:31.388Z,152520.84
2019-03-20T21:47:59.859Z,152524.75
2019-03-20T21:50:48.134Z,152516.86
2019-03-20T21:53:25.664Z,152505.05
2019-03-20T21:56:16.722Z,152507.66
2019-03-20T21:59:03.303Z,152518.17
2019-03-20T22:01:40.277Z,152526.06
2019-03-20T22:04:08.756Z,152528.69
2019-03-20T22:07:14.778Z,152515.56
2019-03-20T22:09:55.351Z,152494.55
2019-03-20T22:12:29.609Z,152510.33
2019-03-20T22:15:13.131Z,152487.95
2019-03-20T22:17:50.894Z,152470.91
2019-03-20T22:20:52.754Z,152487.95
2019-03-20T22:23:39.414Z,152477.45
2019-03-20T22:26:31.720Z,152463.02
2019-03-20T22:29:26.341Z,152445.94
2019-03-20T22:32:21.982Z,152455.12
2019-03-20T22:35:23.748Z,152440.70
2019-03-20T22:37:52.818Z,152444.63
2019-03-20T22:40:40.832Z,152426.28
2019-03-20T22:43:15.071Z,152449.91
2019-03-20T22:46:01.411Z,152442.00
2019-03-20T22:48:49.822Z,152452.52
2019-03-20T22:51:33.013Z,152457.80
2019-03-20T22:54:21.856Z,152444.63
2019-03-20T22:57:02.272Z,152444.63
2019-03-20T22:59:30.776Z,152444.63
2019-03-20T23:02:05.282Z,152411.80
2019-03-20T23:04:36.931Z,152428.89
2019-03-20T23:07:05.417Z,152411.80
2019-03-20T23:09:33.916Z,152434.13
2019-03-20T23:12:04.933Z,152445.94
2019-03-20T23:14:33.423Z,152444.63
2019-03-20T23:17:01.927Z,152432.81
2019-03-20T23:19:30.437Z,152430.20
2019-03-20T23:21:58.898Z,152434.13
2019-03-20T23:24:27.427Z,152413.11
2019-03-20T23:26:57.054Z,152426.28
2019-03-20T23:29:25.582Z,152422.31
2019-03-20T23:31:54.072Z,152415.78
2019-03-20T23:34:22.574Z,152392.09
2019-03-20T23:36:51.065Z,152407.88
2019-03-20T23:39:19.563Z,152400.00
2019-03-20T23:41:48.024Z,152400.00
2019-03-20T23:44:16.529Z,152385.56
2019-03-20T23:46:45.062Z,152385.56
2019-03-20T23:49:16.768Z,152405.22
2019-03-20T23:51:45.250Z,152393.41
2019-03-20T23:54:15.572Z,152386.87
2019-03-20T23:56:44.054Z,152384.22
2019-03-20T23:59:12.538Z,152400.00
